createdAt,value
2022-11-05T00:01:54.241Z,100702.19
2022-11-05T00:04:39.517Z,100705.44
2022-11-05T00:07:36.182Z,100714.72
2022-11-05T00:10:21.455Z,100717.13
2022-11-05T00:13:07.045Z,100725.88
2022-11-05T00:15:52.538Z,100722.50
2022-11-05T00:18:19.214Z,100726.75
2022-11-05T00:20:45.902Z,100726.41
2022-11-05T00:23:31.172Z,100727.06
2022-11-05T00:25:59.902Z,100730.44
2022-11-05T00:28:28.432Z,100733.13
2022-11-05T00:31:00.832Z,100733.81
2022-11-05T00:33:27.593Z,100736.94
2022-11-05T00:35:54.500Z,100741.38
2022-11-05T00:38:21.177Z,100737.75
2022-11-05T00:40:47.964Z,100745.59
2022-11-05T00:43:33.339Z,100738.47
2022-11-05T00:46:00.048Z,100741.94
2022-11-05T00:48:45.359Z,100749.00
2022-11-05T00:51:12.041Z,100750.81
2022-11-05T00:53:38.773Z,100749.72
2022-11-05T00:56:05.645Z,100757.97
2022-11-05T00:58:32.447Z,100751.63
2022-11-05T01:01:00.586Z,100755.81
2022-11-05T01:03:29.571Z,100763.09
2022-11-05T01:06:06.713Z,100763.28
2022-11-05T01:08:33.466Z,100768.41
2022-11-05T01:11:00.134Z,100774.78
2022-11-05T01:13:29.492Z,100777.31
2022-11-05T01:15:56.977Z,100770.13
2022-11-05T01:18:24.280Z,100771.94
2022-11-05T01:20:51.162Z,100779.03
2022-11-05T01:23:18.151Z,100773.25
2022-11-05T01:25:45.878Z,100776.63
2022-11-05T01:28:12.556Z,100779.13
2022-11-05T01:30:39.351Z,100781.94
2022-11-05T01:33:06.521Z,100785.50
2022-11-05T01:35:33.382Z,100779.31
2022-11-05T01:38:00.100Z,100783.78
2022-11-05T01:40:26.815Z,100781.22
2022-11-05T01:42:53.508Z,100797.41
2022-11-05T01:45:24.096Z,100800.13
2022-11-05T01:47:57.994Z,100805.41
2022-11-05T01:50:35.191Z,100807.31
2022-11-05T01:53:39.128Z,100798.50
2022-11-05T01:56:12.477Z,100808.41
2022-11-05T01:58:51.962Z,100818.31
2022-11-05T02:01:19.046Z,100814.97
2022-11-05T02:03:47.035Z,100814.03
2022-11-05T02:06:16.379Z,100821.28
2022-11-05T02:08:57.135Z,100826.69
2022-11-05T02:11:24.576Z,100827.72
2022-11-05T02:13:52.066Z,100821.88
2022-11-05T02:16:39.258Z,100827.94
2022-11-05T02:19:30.384Z,100829.66
2022-11-05T02:22:24.288Z,100827.13
2022-11-05T02:25:03.377Z,100836.03
2022-11-05T02:28:01.325Z,100834.56
2022-11-05T02:30:52.914Z,100831.84
2022-11-05T02:33:44.636Z,100841.75
2022-11-05T02:36:20.768Z,100847.13
2022-11-05T02:39:02.673Z,100842.78
2022-11-05T02:42:02.044Z,100845.47
2022-11-05T02:44:46.702Z,100850.19
2022-11-05T02:47:26.050Z,100850.00
2022-11-05T02:50:27.377Z,100853.44
2022-11-05T02:53:01.037Z,100863.31
2022-11-05T02:55:37.560Z,100863.19
2022-11-05T02:58:05.659Z,100860.53
2022-11-05T03:00:44.287Z,100858.09
2022-11-05T03:03:18.752Z,100862.47
2022-11-05T03:06:18.808Z,100864.03
2022-11-05T03:09:07.276Z,100864.09
2022-11-05T03:11:44.173Z,100867.69
2022-11-05T03:14:38.403Z,100867.63
2022-11-05T03:17:43.301Z,100874.81
2022-11-05T03:20:31.109Z,100880.16
2022-11-05T03:23:13.045Z,100880.16
2022-11-05T03:25:46.866Z,100882.78
2022-11-05T03:28:14.866Z,100890.78
2022-11-05T03:30:42.688Z,100892.50
2022-11-05T03:33:14.434Z,100892.53
2022-11-05T03:35:47.874Z,100897.84
2022-11-05T03:38:22.219Z,100898.81
2022-11-05T03:40:52.827Z,100901.47
2022-11-05T03:43:21.027Z,100900.69
2022-11-05T03:45:53.329Z,100914.06
2022-11-05T03:48:21.231Z,100919.81
2022-11-05T03:51:10.475Z,100919.81
2022-11-05T03:53:43.180Z,100921.69
2022-11-05T03:56:36.045Z,100924.22
2022-11-05T03:59:03.442Z,100922.44
2022-11-05T04:01:30.546Z,100933.97
2022-11-05T04:03:57.318Z,100933.09
2022-11-05T04:06:42.644Z,100939.41
2022-11-05T04:09:29.194Z,100935.91
2022-11-05T04:12:14.429Z,100942.19
2022-11-05T04:14:41.104Z,100948.50
2022-11-05T04:17:09.232Z,100943.31
2022-11-05T04:19:59.727Z,100947.84
2022-11-05T04:22:47.162Z,100955.91
2022-11-05T04:25:14.959Z,100966.53
2022-11-05T04:27:41.748Z,100955.91
2022-11-05T04:30:21.874Z,100972.00
2022-11-05T04:32:55.734Z,100979.25
2022-11-05T04:35:22.546Z,100974.00
2022-11-05T04:37:49.284Z,100970.50
2022-11-05T04:40:16.031Z,100966.97
2022-11-05T04:42:42.788Z,100975.75
2022-11-05T04:45:09.484Z,100978.44
2022-11-05T04:47:36.118Z,100980.31
2022-11-05T04:50:02.992Z,100970.69
2022-11-05T04:52:30.189Z,100977.03
2022-11-05T04:54:56.868Z,100982.31
2022-11-05T04:57:23.516Z,100983.19
2022-11-05T04:59:50.549Z,100984.16
2022-11-05T05:02:17.243Z,100979.66
2022-11-05T05:04:43.943Z,100977.97
2022-11-05T05:07:10.615Z,100974.47
2022-11-05T05:09:37.270Z,100973.66
2022-11-05T05:12:04.034Z,100964.75
2022-11-05T05:14:30.674Z,100968.34
2022-11-05T05:16:57.345Z,100972.84
2022-11-05T05:19:24.798Z,100982.69
2022-11-05T05:21:51.750Z,100986.41
2022-11-05T05:24:19.914Z,100994.41
2022-11-05T05:26:50.813Z,100993.56
2022-11-05T05:29:18.176Z,100987.47
2022-11-05T05:31:44.958Z,101000.84
2022-11-05T05:34:12.970Z,101003.50
2022-11-05T05:36:39.841Z,101010.81
2022-11-05T05:39:07.488Z,101007.22
2022-11-05T05:41:34.212Z,101015.16
2022-11-05T05:44:00.917Z,101017.81
2022-11-05T05:46:27.634Z,101035.50
2022-11-05T05:48:54.320Z,101028.38
2022-11-05T05:51:20.972Z,101030.97
2022-11-05T05:53:47.609Z,101033.63
2022-11-05T05:56:15.278Z,101033.66
2022-11-05T05:58:41.967Z,101038.13
2022-11-05T06:01:18.699Z,101042.53
2022-11-05T06:03:46.427Z,101045.34
2022-11-05T06:06:14.224Z,101049.84
2022-11-05T06:08:41.682Z,101067.59
2022-11-05T06:11:09.621Z,101065.88
2022-11-05T06:13:36.879Z,101069.53
2022-11-05T06:16:05.991Z,101074.84
2022-11-05T06:18:34.787Z,101074.00
2022-11-05T06:21:12.713Z,101073.34
2022-11-05T06:23:41.036Z,101080.47
2022-11-05T06:26:16.457Z,101084.94
2022-11-05T06:28:43.323Z,101091.13
2022-11-05T06:31:11.308Z,101099.09
2022-11-05T06:33:38.431Z,101106.19
2022-11-05T06:36:06.393Z,101101.13
2022-11-05T06:38:35.211Z,101107.28
2022-11-05T06:41:07.184Z,101115.34
2022-11-05T06:43:36.694Z,101120.56
2022-11-05T06:46:03.527Z,101123.22
2022-11-05T06:48:30.451Z,101123.44
2022-11-05T06:50:57.540Z,101127.88
2022-11-05T06:53:24.243Z,101129.69
2022-11-05T06:55:50.929Z,101139.28
2022-11-05T06:58:17.592Z,101127.75
2022-11-05T07:00:44.360Z,101138.50
2022-11-05T07:03:12.348Z,101135.13
2022-11-05T07:05:45.697Z,101141.13
2022-11-05T07:08:12.361Z,101142.72
2022-11-05T07:10:39.111Z,101143.53
2022-11-05T07:13:08.414Z,101147.94
2022-11-05T07:15:36.125Z,101157.69
2022-11-05T07:18:02.896Z,101163.00
2022-11-05T07:20:33.853Z,101168.34
2022-11-05T07:23:05.626Z,101170.03
2022-11-05T07:25:32.916Z,101170.03
2022-11-05T07:27:59.805Z,101175.38
2022-11-05T07:30:26.487Z,101172.75
2022-11-05T07:32:53.196Z,101174.53
2022-11-05T07:35:19.886Z,101176.16
2022-11-05T07:37:48.569Z,101180.50
2022-11-05T07:40:16.608Z,101183.28
2022-11-05T07:42:47.302Z,101187.59
2022-11-05T07:45:14.591Z,101196.44
2022-11-05T07:47:55.024Z,101197.31
2022-11-05T07:50:24.133Z,101184.84
2022-11-05T07:52:51.317Z,101187.50
2022-11-05T07:55:19.341Z,101184.00
2022-11-05T07:57:48.773Z,101186.69
2022-11-05T08:00:20.562Z,101188.44
2022-11-05T08:03:07.294Z,101190.28
2022-11-05T08:05:37.439Z,101190.22
2022-11-05T08:08:04.445Z,101192.88
2022-11-05T08:10:31.081Z,101197.50
2022-11-05T08:12:57.826Z,101200.16
2022-11-05T08:15:24.722Z,101200.75
2022-11-05T08:18:05.880Z,101212.50
2022-11-05T08:20:33.439Z,101209.16
2022-11-05T08:23:00.414Z,101216.84
2022-11-05T08:25:27.406Z,101211.09
2022-11-05T08:28:02.791Z,101223.19
2022-11-05T08:30:30.073Z,101220.22
2022-11-05T08:33:01.524Z,101228.31
2022-11-05T08:35:29.501Z,101229.19
2022-11-05T08:38:02.042Z,101241.50
2022-11-05T08:40:31.126Z,101239.91
2022-11-05T08:42:58.774Z,101251.41
2022-11-05T08:45:26.635Z,101248.34
2022-11-05T08:48:07.858Z,101244.13
2022-11-05T08:50:35.288Z,101235.72
2022-11-05T08:53:02.054Z,101236.13
2022-11-05T08:55:28.752Z,101241.88
2022-11-05T08:57:59.793Z,101236.94
2022-11-05T09:00:27.769Z,101242.72
2022-11-05T09:03:09.820Z,101239.41
2022-11-05T09:05:38.979Z,101246.22
2022-11-05T09:08:06.302Z,101256.81
2022-11-05T09:10:33.052Z,101266.31
2022-11-05T09:13:00.803Z,101264.53
2022-11-05T09:15:28.036Z,101270.84
2022-11-05T09:17:55.308Z,101271.88
2022-11-05T09:20:22.478Z,101275.94
2022-11-05T09:22:49.826Z,101274.84
2022-11-05T09:25:16.729Z,101278.53
2022-11-05T09:27:43.740Z,101280.22
2022-11-05T09:30:11.846Z,101283.53
2022-11-05T09:32:38.970Z,101276.94
2022-11-05T09:35:06.354Z,101280.69
2022-11-05T09:37:33.255Z,101292.03
2022-11-05T09:39:59.960Z,101290.88
2022-11-05T09:42:35.947Z,101286.72
2022-11-05T09:45:05.819Z,101304.13
2022-11-05T09:47:39.878Z,101301.19
2022-11-05T09:50:09.864Z,101292.88
2022-11-05T09:52:36.657Z,101297.78
2022-11-05T09:55:06.723Z,101301.19
2022-11-05T09:57:42.147Z,101297.00
2022-11-05T10:00:16.636Z,101299.44
2022-11-05T10:02:53.282Z,101297.06
2022-11-05T10:05:21.035Z,101308.09
2022-11-05T10:07:58.509Z,101301.28
2022-11-05T10:10:46.342Z,101306.09
2022-11-05T10:13:42.274Z,101300.25
2022-11-05T10:16:44.434Z,101306.66
2022-11-05T10:19:17.360Z,101310.28
2022-11-05T10:22:05.733Z,101308.63
2022-11-05T10:24:31.146Z,101300.59
2022-11-05T10:26:57.888Z,101302.25
2022-11-05T10:29:29.811Z,101307.44
2022-11-05T10:31:57.642Z,101304.19
2022-11-05T10:34:33.206Z,101310.44
2022-11-05T10:37:00.273Z,101308.72
2022-11-05T10:39:29.989Z,101319.31
2022-11-05T10:42:37.452Z,101325.03
2022-11-05T10:45:29.223Z,101324.88
2022-11-05T10:48:20.697Z,101326.09
2022-11-05T10:50:47.670Z,101322.97
2022-11-05T10:53:17.434Z,101322.78
2022-11-05T10:55:47.621Z,101322.97
2022-11-05T10:58:17.426Z,101322.59
2022-11-05T11:00:45.673Z,101320.94
2022-11-05T11:03:34.153Z,101329.16
2022-11-05T11:06:02.839Z,101332.38
2022-11-05T11:08:31.037Z,101336.16
2022-11-05T11:11:02.844Z,101333.22
2022-11-05T11:13:49.370Z,101336.13
2022-11-05T11:16:20.792Z,101334.63
2022-11-05T11:18:53.937Z,101340.03
2022-11-05T11:21:24.749Z,101340.09
2022-11-05T11:24:03.293Z,101333.00
2022-11-05T11:26:36.469Z,101339.50
2022-11-05T11:29:14.222Z,101339.00
2022-11-05T11:31:41.158Z,101340.41
2022-11-05T11:34:25.047Z,101334.88
2022-11-05T11:36:55.755Z,101334.88
2022-11-05T11:39:25.962Z,101346.94
2022-11-05T11:41:55.003Z,101338.53
2022-11-05T11:44:29.676Z,101347.56
2022-11-05T11:47:04.027Z,101351.63
2022-11-05T11:49:41.872Z,101346.88
2022-11-05T11:52:14.106Z,101341.81
2022-11-05T11:54:40.936Z,101345.44
2022-11-05T11:57:28.397Z,101346.44
2022-11-05T12:00:11.804Z,101343.03
2022-11-05T12:03:02.489Z,101350.06
2022-11-05T12:05:44.712Z,101348.31
2022-11-05T12:08:14.456Z,101353.00
2022-11-05T12:10:56.382Z,101351.44
2022-11-05T12:13:42.531Z,101345.81
2022-11-05T12:16:22.848Z,101350.31
2022-11-05T12:19:04.635Z,101353.56
2022-11-05T12:21:59.174Z,101346.06
2022-11-05T12:24:45.311Z,101343.28
2022-11-05T12:27:43.657Z,101339.09
2022-11-05T12:30:21.978Z,101345.53
2022-11-05T12:33:07.061Z,101344.31
2022-11-05T12:36:04.183Z,101346.13
2022-11-05T12:39:04.652Z,101345.53
2022-11-05T12:41:41.412Z,101343.31
2022-11-05T12:44:46.899Z,101344.28
2022-11-05T12:47:57.151Z,101351.72
2022-11-05T12:50:39.959Z,101340.78
2022-11-05T12:53:34.916Z,101347.88
2022-11-05T12:56:06.784Z,101353.22
2022-11-05T12:58:40.385Z,101356.25
2022-11-05T13:01:09.902Z,101357.94
2022-11-05T13:03:45.039Z,101351.94
2022-11-05T13:06:25.961Z,101354.84
2022-11-05T13:08:52.631Z,101351.13
2022-11-05T13:11:34.617Z,101352.72
2022-11-05T13:14:17.107Z,101352.56
2022-11-05T13:16:47.500Z,101353.66
2022-11-05T13:19:28.462Z,101356.50
2022-11-05T13:22:00.172Z,101350.31
2022-11-05T13:24:37.953Z,101347.03
2022-11-05T13:27:43.094Z,101355.84
2022-11-05T13:30:15.892Z,101354.91
2022-11-05T13:32:47.153Z,101350.44
2022-11-05T13:35:26.097Z,101357.25
2022-11-05T13:38:16.535Z,101363.00
2022-11-05T13:41:03.439Z,101362.34
2022-11-05T13:43:41.823Z,101368.44
2022-11-05T13:46:18.640Z,101376.94
2022-11-05T13:49:07.216Z,101367.66
2022-11-05T13:51:49.321Z,101378.97
2022-11-05T13:54:18.930Z,101373.28
2022-11-05T13:56:57.786Z,101376.78
2022-11-05T13:59:45.838Z,101381.97
2022-11-05T14:02:31.891Z,101387.47
2022-11-05T14:05:01.647Z,101378.69
2022-11-05T14:07:44.808Z,101383.25
2022-11-05T14:10:18.267Z,101392.34
2022-11-05T14:12:48.567Z,101387.16
2022-11-05T14:15:37.161Z,101388.97
2022-11-05T14:18:48.428Z,101389.13
2022-11-05T14:21:27.430Z,101400.09
2022-11-05T14:24:18.581Z,101396.69
2022-11-05T14:26:45.485Z,101396.81
2022-11-05T14:29:22.346Z,101392.47
2022-11-05T14:32:08.471Z,101389.06
2022-11-05T14:34:44.136Z,101391.91
2022-11-05T14:37:10.792Z,101384.81
2022-11-05T14:39:37.983Z,101391.19
2022-11-05T14:42:25.005Z,101389.53
2022-11-05T14:45:10.151Z,101403.13
2022-11-05T14:47:40.588Z,101402.41
2022-11-05T14:50:18.673Z,101400.81
2022-11-05T14:52:57.014Z,101407.25
2022-11-05T14:55:33.183Z,101408.38
2022-11-05T14:57:59.804Z,101404.78
2022-11-05T15:00:29.597Z,101405.78
2022-11-05T15:03:05.524Z,101410.34
2022-11-05T15:05:33.430Z,101406.00
2022-11-05T15:08:35.405Z,101406.19
2022-11-05T15:11:29.489Z,101412.66
2022-11-05T15:13:56.296Z,101414.59
2022-11-05T15:16:37.223Z,101418.31
2022-11-05T15:19:04.559Z,101416.72
2022-11-05T15:21:34.536Z,101422.19
2022-11-05T15:24:01.950Z,101421.47
2022-11-05T15:26:50.602Z,101426.06
2022-11-05T15:29:24.741Z,101426.31
2022-11-05T15:31:52.082Z,101427.38
2022-11-05T15:34:20.421Z,101430.22
2022-11-05T15:36:52.542Z,101436.66
2022-11-05T15:39:34.285Z,101431.47
2022-11-05T15:42:04.948Z,101443.25
2022-11-05T15:44:35.072Z,101443.38
2022-11-05T15:47:06.949Z,101446.25
2022-11-05T15:49:33.803Z,101444.56
2022-11-05T15:52:00.586Z,101442.13
2022-11-05T15:54:31.256Z,101444.91
2022-11-05T15:56:59.308Z,101445.13
2022-11-05T15:59:27.446Z,101444.31
2022-11-05T16:01:56.684Z,101444.47
2022-11-05T16:04:26.324Z,101441.03
2022-11-05T16:06:57.665Z,101442.91
2022-11-05T16:09:32.964Z,101444.81
2022-11-05T16:12:35.983Z,101446.75
2022-11-05T16:15:08.465Z,101446.84
2022-11-05T16:17:54.565Z,101448.75
2022-11-05T16:20:35.473Z,101448.88
2022-11-05T16:23:04.718Z,101440.94
2022-11-05T16:25:42.518Z,101449.03
2022-11-05T16:28:25.651Z,101446.41
2022-11-05T16:31:01.416Z,101456.28
2022-11-05T16:33:40.868Z,101453.66
2022-11-05T16:36:08.400Z,101455.47
2022-11-05T16:38:35.133Z,101455.50
2022-11-05T16:41:01.822Z,101461.72
2022-11-05T16:43:33.692Z,101463.50
2022-11-05T16:46:01.243Z,101461.81
2022-11-05T16:48:28.146Z,101464.53
2022-11-05T16:50:55.083Z,101468.09
2022-11-05T16:53:22.109Z,101484.06
2022-11-05T16:55:48.972Z,101481.44
2022-11-05T16:58:21.696Z,101484.19
2022-11-05T17:00:50.526Z,101486.88
2022-11-05T17:03:17.719Z,101495.84
2022-11-05T17:05:45.766Z,101498.56
2022-11-05T17:08:12.802Z,101498.59
2022-11-05T17:10:39.735Z,101500.47
2022-11-05T17:13:06.555Z,101502.34
2022-11-05T17:15:35.827Z,101511.28
2022-11-05T17:18:04.378Z,101522.88
2022-11-05T17:20:40.451Z,101514.06
2022-11-05T17:23:28.933Z,101515.00
2022-11-05T17:26:01.459Z,101517.72
2022-11-05T17:28:29.361Z,101518.66
2022-11-05T17:30:59.368Z,101519.59
2022-11-05T17:33:26.403Z,101523.19
2022-11-05T17:36:05.086Z,101522.38
2022-11-05T17:38:31.893Z,101533.13
2022-11-05T17:40:58.630Z,101537.59
2022-11-05T17:43:25.442Z,101534.09
2022-11-05T17:45:52.521Z,101544.75
2022-11-05T17:48:20.623Z,101542.16
2022-11-05T17:50:50.893Z,101539.56
2022-11-05T17:53:18.797Z,101548.47
2022-11-05T17:55:46.800Z,101551.16
2022-11-05T17:58:13.827Z,101556.53
2022-11-05T18:00:42.232Z,101547.69
2022-11-05T18:03:10.523Z,101544.19
2022-11-05T18:05:38.228Z,101546.06
2022-11-05T18:08:05.324Z,101545.19
2022-11-05T18:10:32.079Z,101550.53
2022-11-05T18:12:58.878Z,101545.28
2022-11-05T18:15:25.930Z,101547.09
2022-11-05T18:17:54.274Z,101540.94
2022-11-05T18:20:21.209Z,101529.44
2022-11-05T18:22:51.529Z,101541.91
2022-11-05T18:25:21.292Z,101538.38
2022-11-05T18:27:47.981Z,101535.78
2022-11-05T18:30:16.035Z,101533.16
2022-11-05T18:32:44.786Z,101529.69
2022-11-05T18:35:13.361Z,101539.47
2022-11-05T18:37:57.266Z,101536.84
2022-11-05T18:40:36.739Z,101534.25
2022-11-05T18:43:18.095Z,101527.22
2022-11-05T18:46:06.245Z,101539.66
2022-11-05T18:48:39.467Z,101532.63
2022-11-05T18:51:15.144Z,101537.06
2022-11-05T18:53:42.010Z,101540.66
2022-11-05T18:56:10.575Z,101542.44
2022-11-05T18:58:38.701Z,101543.34
2022-11-05T19:01:17.821Z,101545.13
2022-11-05T19:03:45.674Z,101540.75
2022-11-05T19:06:13.426Z,101539.03
2022-11-05T19:08:40.319Z,101540.75
2022-11-05T19:11:09.177Z,101540.75
2022-11-05T19:13:36.388Z,101546.06
2022-11-05T19:16:07.005Z,101546.06
2022-11-05T19:18:33.928Z,101541.69
2022-11-05T19:21:00.760Z,101547.94
2022-11-05T19:23:27.479Z,101555.91
2022-11-05T19:25:54.319Z,101561.25
2022-11-05T19:28:24.061Z,101550.72
2022-11-05T19:30:50.980Z,101556.91
2022-11-05T19:33:17.768Z,101551.63
2022-11-05T19:35:44.730Z,101554.28
2022-11-05T19:38:11.670Z,101553.41
2022-11-05T19:40:38.753Z,101554.34
2022-11-05T19:43:07.436Z,101557.00
2022-11-05T19:45:50.088Z,101551.75
2022-11-05T19:48:19.812Z,101548.25
2022-11-05T19:50:50.576Z,101544.72
2022-11-05T19:53:17.715Z,101542.97
2022-11-05T19:55:47.113Z,101545.66
2022-11-05T19:58:15.504Z,101548.31
2022-11-05T20:00:42.330Z,101550.97
2022-11-05T20:03:13.249Z,101546.56
2022-11-05T20:05:40.752Z,101550.16
2022-11-05T20:08:07.426Z,101551.06
2022-11-05T20:10:37.063Z,101564.34
2022-11-05T20:13:04.011Z,101563.47
2022-11-05T20:15:30.718Z,101556.44
2022-11-05T20:17:57.592Z,101557.34
2022-11-05T20:20:24.353Z,101562.66
2022-11-05T20:22:52.466Z,101568.88
2022-11-05T20:25:19.193Z,101564.50
2022-11-05T20:27:47.096Z,101572.44
2022-11-05T20:30:13.915Z,101580.44
2022-11-05T20:32:40.778Z,101578.66
2022-11-05T20:35:07.939Z,101579.59
2022-11-05T20:37:35.282Z,101577.84
2022-11-05T20:40:02.204Z,101581.38
2022-11-05T20:42:28.939Z,101584.06
2022-11-05T20:44:55.744Z,101590.22
2022-11-05T20:47:22.518Z,101589.41
2022-11-05T20:49:49.291Z,101584.97
2022-11-05T20:52:17.384Z,101580.59
2022-11-05T20:54:44.400Z,101577.94
2022-11-05T20:57:11.093Z,101571.75
2022-11-05T20:59:37.929Z,101577.09
2022-11-05T21:02:04.747Z,101577.09
2022-11-05T21:04:31.671Z,101583.28
2022-11-05T21:06:58.347Z,101583.31
2022-11-05T21:09:25.307Z,101596.56
2022-11-05T21:12:10.250Z,101594.81
2022-11-05T21:14:41.897Z,101596.59
2022-11-05T21:17:10.395Z,101605.41
2022-11-05T21:19:37.855Z,101600.16
2022-11-05T21:22:05.159Z,101601.03
2022-11-05T21:24:33.346Z,101597.50
2022-11-05T21:27:00.080Z,101596.63
2022-11-05T21:29:26.799Z,101592.19
2022-11-05T21:31:53.840Z,101596.63
2022-11-05T21:34:20.684Z,101592.19
2022-11-05T21:36:47.530Z,101587.81
2022-11-05T21:39:14.540Z,101586.03
2022-11-05T21:41:42.842Z,101587.81
2022-11-05T21:44:09.809Z,101576.34
2022-11-05T21:46:37.944Z,101578.09
2022-11-05T21:49:05.142Z,101577.22
2022-11-05T21:51:50.883Z,101575.47
2022-11-05T21:54:36.455Z,101580.75
2022-11-05T21:57:21.805Z,101583.41
2022-11-05T21:59:48.500Z,101576.34
2022-11-05T22:02:21.393Z,101579.00
2022-11-05T22:04:51.265Z,101576.34
2022-11-05T22:07:21.052Z,101576.34
2022-11-05T22:09:48.253Z,101581.69
2022-11-05T22:12:15.198Z,101584.34
2022-11-05T22:14:42.280Z,101577.25
2022-11-05T22:17:09.655Z,101580.78
2022-11-05T22:19:36.413Z,101573.75
2022-11-05T22:22:06.880Z,101576.34
2022-11-05T22:24:34.402Z,101582.56
2022-11-05T22:27:08.108Z,101579.91
2022-11-05T22:29:36.009Z,101582.56
2022-11-05T22:32:03.037Z,101578.13
2022-11-05T22:34:29.828Z,101574.63
2022-11-05T22:36:57.018Z,101579.03
2022-11-05T22:39:24.038Z,101569.34
2022-11-05T22:41:53.980Z,101577.28
2022-11-05T22:44:20.916Z,101579.06
2022-11-05T22:46:47.683Z,101575.50
2022-11-05T22:49:14.493Z,101576.41
2022-11-05T22:51:41.204Z,101580.84
2022-11-05T22:54:08.330Z,101589.66
2022-11-05T22:56:38.299Z,101582.59
2022-11-05T22:59:06.108Z,101579.94
2022-11-05T23:01:33.375Z,101577.28
2022-11-05T23:04:00.486Z,101576.41
2022-11-05T23:06:50.992Z,101581.69
2022-11-05T23:09:45.412Z,101580.81
2022-11-05T23:12:32.164Z,101578.16
2022-11-05T23:15:05.777Z,101579.91
2022-11-05T23:17:51.269Z,101584.31
2022-11-05T23:20:39.017Z,101584.31
2022-11-05T23:23:28.211Z,101584.31
2022-11-05T23:26:21.081Z,101577.22
2022-11-05T23:28:47.756Z,101574.59
2022-11-05T23:31:33.137Z,101575.47
2022-11-05T23:33:59.827Z,101574.59
2022-11-05T23:36:45.120Z,101571.94
2022-11-05T23:39:11.769Z,101578.97
2022-11-05T23:41:57.165Z,101571.03
2022-11-05T23:44:42.635Z,101568.38
2022-11-05T23:47:28.003Z,101568.38
2022-11-05T23:49:54.689Z,101575.47
2022-11-05T23:52:21.418Z,101566.59
2022-11-05T23:54:48.082Z,101567.50
2022-11-05T23:57:14.833Z,101570.16
2022-11-05T23:59:41.552Z,101566.59
